createdAt,value
2022-11-16T00:01:13.949Z,9.27
2022-11-16T00:03:42.597Z,9.21
2022-11-16T00:06:11.586Z,9.22
2022-11-16T00:08:42.233Z,9.23
2022-11-16T00:11:16.191Z,9.22
2022-11-16T00:13:43.768Z,9.20
2022-11-16T00:16:18.342Z,9.24
2022-11-16T00:18:45.679Z,9.25
2022-11-16T00:21:13.372Z,9.25
2022-11-16T00:23:40.717Z,9.12
2022-11-16T00:26:09.879Z,9.18
2022-11-16T00:28:37.824Z,9.24
2022-11-16T00:31:07.608Z,9.23
2022-11-16T00:33:35.592Z,9.27
2022-11-16T00:36:11.872Z,9.24
2022-11-16T00:38:40.009Z,9.27
2022-11-16T00:41:08.787Z,9.25
2022-11-16T00:43:36.573Z,9.13
2022-11-16T00:46:04.715Z,9.23
2022-11-16T00:48:32.856Z,9.25
2022-11-16T00:51:00.419Z,9.16
2022-11-16T00:53:27.911Z,9.22
2022-11-16T00:55:55.541Z,9.20
2022-11-16T00:58:23.044Z,9.21
2022-11-16T01:00:51.144Z,9.21
2022-11-16T01:03:18.983Z,9.19
2022-11-16T01:05:47.060Z,9.20
2022-11-16T01:08:14.830Z,9.23
2022-11-16T01:10:42.551Z,9.20
2022-11-16T01:13:11.204Z,9.19
2022-11-16T01:15:38.643Z,9.24
2022-11-16T01:18:06.307Z,9.25
2022-11-16T01:20:33.818Z,9.26
2022-11-16T01:23:01.305Z,9.23
2022-11-16T01:25:29.034Z,9.25
2022-11-16T01:27:56.862Z,9.21
2022-11-16T01:30:24.767Z,9.22
2022-11-16T01:32:54.076Z,9.23
2022-11-16T01:35:21.623Z,9.20
2022-11-16T01:37:49.222Z,9.22
2022-11-16T01:40:16.985Z,9.23
2022-11-16T01:42:44.471Z,9.21
2022-11-16T01:45:37.475Z,9.20
2022-11-16T01:48:06.358Z,9.19
2022-11-16T01:50:36.116Z,9.18
2022-11-16T01:53:06.057Z,9.19
2022-11-16T01:55:37.077Z,9.14
2022-11-16T01:58:06.699Z,9.13
2022-11-16T02:00:34.914Z,9.14
2022-11-16T02:03:04.147Z,9.12
2022-11-16T02:06:07.531Z,9.13
2022-11-16T02:09:27.187Z,9.16
2022-11-16T02:12:14.001Z,9.14
2022-11-16T02:15:07.969Z,9.15
2022-11-16T02:17:52.764Z,9.15
2022-11-16T02:21:05.896Z,9.12
2022-11-16T02:23:58.391Z,9.08
2022-11-16T02:26:26.036Z,9.09
2022-11-16T02:29:21.726Z,9.05
2022-11-16T02:32:03.919Z,9.05
2022-11-16T02:34:38.679Z,9.05
2022-11-16T02:37:10.626Z,9.04
2022-11-16T02:39:40.025Z,9.06
2022-11-16T02:42:15.439Z,9.02
2022-11-16T02:44:46.450Z,9.04
2022-11-16T02:47:22.103Z,9.07
2022-11-16T02:49:57.780Z,9.04
2022-11-16T02:52:28.307Z,9.05
2022-11-16T02:54:56.170Z,8.96
2022-11-16T02:57:42.345Z,9.04
2022-11-16T03:00:35.640Z,9.02
2022-11-16T03:03:18.430Z,9.04
2022-11-16T03:05:54.848Z,9.03
2022-11-16T03:08:39.884Z,9.05
2022-11-16T03:11:30.771Z,9.03
2022-11-16T03:14:14.465Z,9.06
2022-11-16T03:16:51.283Z,9.02
2022-11-16T03:19:29.232Z,9.04
2022-11-16T03:22:10.196Z,9.03
2022-11-16T03:24:39.088Z,9.06
2022-11-16T03:27:16.866Z,9.05
2022-11-16T03:30:05.791Z,8.99
2022-11-16T03:32:41.332Z,9.02
2022-11-16T03:35:24.377Z,8.97
2022-11-16T03:37:55.078Z,8.96
2022-11-16T03:40:26.744Z,8.96
2022-11-16T03:42:56.151Z,8.92
2022-11-16T03:45:24.390Z,8.92
2022-11-16T03:47:52.422Z,8.92
2022-11-16T03:50:20.594Z,8.92
2022-11-16T03:52:48.055Z,8.91
2022-11-16T03:55:16.527Z,8.93
2022-11-16T03:57:44.452Z,8.93
2022-11-16T04:00:12.800Z,8.91
2022-11-16T04:02:40.655Z,8.87
2022-11-16T04:05:28.320Z,8.89
2022-11-16T04:08:14.422Z,8.91
2022-11-16T04:11:02.199Z,8.83
2022-11-16T04:13:52.084Z,8.81
2022-11-16T04:16:38.517Z,8.78
2022-11-16T04:19:24.733Z,8.78
2022-11-16T04:22:15.082Z,8.78
2022-11-16T04:24:47.846Z,8.80
2022-11-16T04:27:34.628Z,8.82
2022-11-16T04:30:04.539Z,8.79
2022-11-16T04:32:52.310Z,8.77
2022-11-16T04:35:38.167Z,8.79
2022-11-16T04:38:07.517Z,8.78
2022-11-16T04:40:35.855Z,8.84
2022-11-16T04:43:04.639Z,8.87
2022-11-16T04:45:51.819Z,8.86
2022-11-16T04:48:20.642Z,8.63
2022-11-16T04:50:48.923Z,8.72
2022-11-16T04:53:16.589Z,8.68
2022-11-16T04:55:44.728Z,8.78
2022-11-16T04:58:13.723Z,8.79
2022-11-16T05:00:41.310Z,8.66
2022-11-16T05:03:09.050Z,8.79
2022-11-16T05:05:36.736Z,8.83
2022-11-16T05:08:04.890Z,8.85
2022-11-16T05:10:32.615Z,8.77
2022-11-16T05:13:00.305Z,8.73
2022-11-16T05:15:27.853Z,8.70
2022-11-16T05:17:55.782Z,8.76
2022-11-16T05:20:42.881Z,8.81
2022-11-16T05:23:30.310Z,8.85
2022-11-16T05:25:58.490Z,8.84
2022-11-16T05:28:25.913Z,8.85
2022-11-16T05:30:53.414Z,8.91
2022-11-16T05:33:21.464Z,8.84
2022-11-16T05:35:52.471Z,8.82
2022-11-16T05:38:20.113Z,8.87
2022-11-16T05:40:48.078Z,8.82
2022-11-16T05:43:15.769Z,8.81
2022-11-16T05:45:43.712Z,8.84
2022-11-16T05:48:11.994Z,8.83
2022-11-16T05:50:42.771Z,8.65
2022-11-16T05:53:11.599Z,8.66
2022-11-16T05:55:39.286Z,8.75
2022-11-16T05:58:06.783Z,8.68
2022-11-16T06:00:34.830Z,8.65
2022-11-16T06:03:02.938Z,8.71
2022-11-16T06:05:32.462Z,8.76
2022-11-16T06:08:01.847Z,8.80
2022-11-16T06:10:30.830Z,8.69
2022-11-16T06:12:58.388Z,8.76
2022-11-16T06:15:26.120Z,8.76
2022-11-16T06:17:53.629Z,8.78
2022-11-16T06:20:21.771Z,8.79
2022-11-16T06:22:49.559Z,8.78
2022-11-16T06:25:17.836Z,8.75
2022-11-16T06:27:45.264Z,8.82
2022-11-16T06:30:13.739Z,8.71
2022-11-16T06:32:41.217Z,8.70
2022-11-16T06:35:08.919Z,8.78
2022-11-16T06:37:36.943Z,8.84
2022-11-16T06:40:04.903Z,8.83
2022-11-16T06:42:32.863Z,8.87
2022-11-16T06:45:01.278Z,8.88
2022-11-16T06:47:29.503Z,8.90
2022-11-16T06:49:59.118Z,8.96
2022-11-16T06:52:27.348Z,9.00
2022-11-16T06:54:55.554Z,9.02
2022-11-16T06:57:23.706Z,9.00
2022-11-16T06:59:51.583Z,9.02
2022-11-16T07:02:21.327Z,9.06
2022-11-16T07:04:48.864Z,9.03
2022-11-16T07:07:17.805Z,9.09
2022-11-16T07:09:45.642Z,9.10
2022-11-16T07:12:14.383Z,9.03
2022-11-16T07:14:42.490Z,9.05
2022-11-16T07:17:10.036Z,9.11
2022-11-16T07:19:37.888Z,9.09
2022-11-16T07:22:06.645Z,9.01
2022-11-16T07:24:34.324Z,9.10
2022-11-16T07:27:02.155Z,9.18
2022-11-16T07:29:31.309Z,9.22
2022-11-16T07:32:02.116Z,9.22
2022-11-16T07:34:30.721Z,9.26
2022-11-16T07:37:01.248Z,9.31
2022-11-16T07:39:28.744Z,9.30
2022-11-16T07:41:56.859Z,9.32
2022-11-16T07:44:24.707Z,9.32
2022-11-16T07:46:58.926Z,9.33
2022-11-16T07:49:26.288Z,9.21
2022-11-16T07:51:54.244Z,9.28
2022-11-16T07:54:22.559Z,9.34
2022-11-16T07:56:50.328Z,9.29
2022-11-16T07:59:27.506Z,9.40
2022-11-16T08:01:55.791Z,9.48
2022-11-16T08:04:24.659Z,9.49
2022-11-16T08:06:52.634Z,9.58
2022-11-16T08:09:20.327Z,9.71
2022-11-16T08:11:49.129Z,9.77
2022-11-16T08:14:18.599Z,9.75
2022-11-16T08:16:47.377Z,9.80
2022-11-16T08:19:15.360Z,9.94
2022-11-16T08:21:42.791Z,10.01
2022-11-16T08:24:10.306Z,10.02
2022-11-16T08:26:38.261Z,10.07
2022-11-16T08:29:06.643Z,10.06
2022-11-16T08:31:34.535Z,10.08
2022-11-16T08:34:05.896Z,10.14
2022-11-16T08:36:33.756Z,10.15
2022-11-16T08:39:02.827Z,10.10
2022-11-16T08:41:32.141Z,10.06
2022-11-16T08:44:01.092Z,10.16
2022-11-16T08:46:28.667Z,10.23
2022-11-16T08:48:57.607Z,10.20
2022-11-16T08:51:26.286Z,10.18
2022-11-16T08:53:57.048Z,10.16
2022-11-16T08:56:27.299Z,10.24
2022-11-16T08:58:58.991Z,10.23
2022-11-16T09:01:29.189Z,10.31
2022-11-16T09:03:57.203Z,10.32
2022-11-16T09:06:27.013Z,10.26
2022-11-16T09:08:55.909Z,10.38
2022-11-16T09:11:25.111Z,10.40
2022-11-16T09:13:54.495Z,10.45
2022-11-16T09:16:24.096Z,10.39
2022-11-16T09:18:52.060Z,10.42
2022-11-16T09:21:22.322Z,10.55
2022-11-16T09:23:50.607Z,10.56
2022-11-16T09:26:21.147Z,10.63
2022-11-16T09:28:55.755Z,10.61
2022-11-16T09:31:24.434Z,10.66
2022-11-16T09:33:51.913Z,10.74
2022-11-16T09:36:21.274Z,10.81
2022-11-16T09:42:03.202Z,11.03
2022-11-16T09:44:49.277Z,11.23
2022-11-16T09:47:21.669Z,11.36
2022-11-16T09:49:56.994Z,11.37
2022-11-16T09:52:30.188Z,11.58
2022-11-16T09:55:01.270Z,11.63
2022-11-16T09:57:34.266Z,11.64
2022-11-16T10:00:23.586Z,11.62
2022-11-16T10:03:02.237Z,11.64
2022-11-16T10:06:06.438Z,11.68
2022-11-16T10:08:43.660Z,11.76
2022-11-16T10:11:36.453Z,11.70
2022-11-16T10:14:22.244Z,11.54
2022-11-16T10:17:25.433Z,11.42
2022-11-16T10:20:16.952Z,11.48
2022-11-16T10:23:04.279Z,11.54
2022-11-16T10:26:15.365Z,11.61
2022-11-16T10:28:48.776Z,11.47
2022-11-16T10:31:30.298Z,11.50
2022-11-16T10:34:00.383Z,11.54
2022-11-16T10:36:31.663Z,11.65
2022-11-16T10:39:01.112Z,11.76
2022-11-16T10:41:39.457Z,11.78
2022-11-16T10:44:18.629Z,11.86
2022-11-16T10:47:00.969Z,11.89
2022-11-16T10:49:36.462Z,11.80
2022-11-16T10:52:04.515Z,11.83
2022-11-16T10:54:32.612Z,11.85
2022-11-16T10:57:08.811Z,11.78
2022-11-16T10:59:42.753Z,11.76
2022-11-16T11:02:34.754Z,11.77
2022-11-16T11:05:05.627Z,11.83
2022-11-16T11:07:39.908Z,11.96
2022-11-16T11:10:33.295Z,11.96
2022-11-16T11:13:21.446Z,11.93
2022-11-16T11:15:51.260Z,11.85
2022-11-16T11:18:26.152Z,11.87
2022-11-16T11:21:13.891Z,11.82
2022-11-16T11:23:45.595Z,11.81
2022-11-16T11:26:37.199Z,11.76
2022-11-16T11:29:31.807Z,11.82
2022-11-16T11:32:13.195Z,11.83
2022-11-16T11:34:45.663Z,11.77
2022-11-16T11:37:17.042Z,11.77
2022-11-16T11:39:44.923Z,11.74
2022-11-16T11:42:12.602Z,11.76
2022-11-16T11:44:44.549Z,11.71
2022-11-16T11:47:56.870Z,11.73
2022-11-16T11:50:16.701Z,11.75
2022-11-16T11:53:00.382Z,11.72
2022-11-16T11:55:29.315Z,11.76
2022-11-16T11:57:59.378Z,11.80
2022-11-16T12:00:26.939Z,11.81
2022-11-16T12:03:20.793Z,11.80
2022-11-16T12:06:26.535Z,11.81
2022-11-16T12:09:32.763Z,11.73
2022-11-16T12:12:34.393Z,11.71
2022-11-16T12:15:10.772Z,11.68
2022-11-16T12:17:58.754Z,11.63
2022-11-16T12:20:44.787Z,11.57
2022-11-16T12:23:47.889Z,11.60
2022-11-16T12:26:24.602Z,11.55
2022-11-16T12:29:19.565Z,11.52
2022-11-16T12:32:22.792Z,11.53
2022-11-16T12:35:19.317Z,11.51
2022-11-16T12:38:24.883Z,11.48
2022-11-16T12:41:21.443Z,11.41
2022-11-16T12:44:04.891Z,11.40
2022-11-16T12:46:41.175Z,11.35
2022-11-16T12:49:30.582Z,11.34
2022-11-16T12:52:42.444Z,11.31
2022-11-16T12:55:44.215Z,11.31
2022-11-16T12:58:20.333Z,11.31
2022-11-16T13:01:02.737Z,11.32
2022-11-16T13:03:30.542Z,11.33
2022-11-16T13:06:03.727Z,11.30
2022-11-16T13:08:44.134Z,11.30
2022-11-16T13:11:20.281Z,11.27
2022-11-16T13:13:53.680Z,11.25
2022-11-16T13:16:24.135Z,11.16
2022-11-16T13:18:53.337Z,11.14
2022-11-16T13:21:54.731Z,11.08
2022-11-16T13:24:52.390Z,11.16
2022-11-16T13:27:35.991Z,11.13
2022-11-16T13:30:22.236Z,11.16
2022-11-16T13:33:11.063Z,11.18
2022-11-16T13:35:39.563Z,11.19
2022-11-16T13:38:13.568Z,11.19
2022-11-16T13:40:41.406Z,11.18
2022-11-16T13:43:11.554Z,11.15
2022-11-16T13:45:41.294Z,10.96
2022-11-16T13:48:37.066Z,11.04
2022-11-16T13:51:08.226Z,11.01
2022-11-16T13:56:48.959Z,11.03
2022-11-16T13:59:26.105Z,11.02
2022-11-16T14:02:03.050Z,11.04
2022-11-16T14:04:53.171Z,10.94
2022-11-16T14:07:43.262Z,11.01
2022-11-16T14:10:31.936Z,10.98
2022-11-16T14:13:04.440Z,10.99
2022-11-16T14:15:37.324Z,10.93
2022-11-16T14:18:07.638Z,10.92
2022-11-16T14:20:57.059Z,10.92
2022-11-16T14:23:44.513Z,10.89
2022-11-16T14:26:37.916Z,10.96
2022-11-16T14:29:15.970Z,10.94
2022-11-16T14:31:52.317Z,11.01
2022-11-16T14:34:25.663Z,10.89
2022-11-16T14:36:53.847Z,10.86
2022-11-16T14:39:27.543Z,10.80
2022-11-16T14:42:00.590Z,10.81
2022-11-16T14:44:32.264Z,10.71
2022-11-16T14:47:02.601Z,10.64
2022-11-16T14:49:33.555Z,10.69
2022-11-16T14:52:03.391Z,10.69
2022-11-16T14:55:00.526Z,10.61
2022-11-16T14:57:28.548Z,10.63
2022-11-16T15:00:22.325Z,10.60
2022-11-16T15:02:59.175Z,10.63
2022-11-16T15:05:34.503Z,10.62
2022-11-16T15:08:08.394Z,10.53
2022-11-16T15:10:52.098Z,10.55
2022-11-16T15:13:24.941Z,10.56
2022-11-16T15:16:16.367Z,10.51
2022-11-16T15:19:01.783Z,10.45
2022-11-16T15:21:29.514Z,10.43
2022-11-16T15:26:44.696Z,10.51
2022-11-16T15:29:18.386Z,10.46
2022-11-16T15:31:46.783Z,10.52
2022-11-16T15:34:18.392Z,10.54
2022-11-16T15:36:47.340Z,10.53
2022-11-16T15:39:22.379Z,10.54
2022-11-16T15:41:51.917Z,10.53
2022-11-16T15:44:23.133Z,10.53
2022-11-16T15:46:53.884Z,10.57
2022-11-16T15:49:27.627Z,10.56
2022-11-16T15:51:55.171Z,10.57
2022-11-16T15:54:27.206Z,10.58
2022-11-16T15:57:13.258Z,10.59
2022-11-16T15:59:41.083Z,10.64
2022-11-16T16:02:19.057Z,10.66
2022-11-16T16:04:47.024Z,10.69
2022-11-16T16:07:38.686Z,10.70
2022-11-16T16:10:33.016Z,10.70
2022-11-16T16:13:02.051Z,10.72
2022-11-16T16:15:31.272Z,10.73
2022-11-16T16:18:01.360Z,10.74
2022-11-16T16:20:31.334Z,10.73
2022-11-16T16:23:13.331Z,10.73
2022-11-16T16:25:42.037Z,10.75
2022-11-16T16:28:12.396Z,10.77
2022-11-16T16:30:40.015Z,10.80
2022-11-16T16:33:19.103Z,10.81
2022-11-16T16:35:49.729Z,10.83
2022-11-16T16:38:17.381Z,10.83
2022-11-16T16:40:44.756Z,10.85
2022-11-16T16:43:12.598Z,10.85
2022-11-16T16:45:43.390Z,10.86
2022-11-16T16:48:14.191Z,10.87
2022-11-16T16:50:42.064Z,10.88
2022-11-16T16:53:13.419Z,10.89
2022-11-16T16:55:45.964Z,10.89
2022-11-16T16:58:14.319Z,10.92
2022-11-16T17:00:42.110Z,10.90
2022-11-16T17:03:10.039Z,10.91
2022-11-16T17:05:37.872Z,10.93
2022-11-16T17:08:05.658Z,10.95
2022-11-16T17:10:33.171Z,10.95
2022-11-16T17:13:03.083Z,10.94
2022-11-16T17:15:30.543Z,10.98
2022-11-16T17:17:59.358Z,10.98
2022-11-16T17:20:27.346Z,10.98
2022-11-16T17:22:56.439Z,11.00
2022-11-16T17:25:23.974Z,10.98
2022-11-16T17:27:51.846Z,11.02
2022-11-16T17:30:19.400Z,11.00
2022-11-16T17:32:47.026Z,10.98
2022-11-16T17:35:14.962Z,11.01
2022-11-16T17:37:43.363Z,10.99
2022-11-16T17:40:11.484Z,11.00
2022-11-16T17:42:39.719Z,10.98
2022-11-16T17:45:07.619Z,10.98
2022-11-16T17:47:35.179Z,10.98
2022-11-16T17:50:04.230Z,11.00
2022-11-16T17:52:31.803Z,11.01
2022-11-16T17:54:59.470Z,10.99
2022-11-16T17:57:27.192Z,11.00
2022-11-16T17:59:54.874Z,11.00
2022-11-16T18:02:22.327Z,10.97
2022-11-16T18:04:51.470Z,11.01
2022-11-16T18:07:19.291Z,10.99
2022-11-16T18:09:46.973Z,11.00
2022-11-16T18:12:14.661Z,11.01
2022-11-16T18:14:42.447Z,11.02
2022-11-16T18:17:10.246Z,11.04
2022-11-16T18:19:38.247Z,11.06
2022-11-16T18:22:05.831Z,11.05
2022-11-16T18:24:33.531Z,11.06
2022-11-16T18:27:01.463Z,11.06
2022-11-16T18:29:29.269Z,11.06
2022-11-16T18:31:56.912Z,11.06
2022-11-16T18:34:24.890Z,11.07
2022-11-16T18:36:52.465Z,11.09
2022-11-16T18:39:20.128Z,11.09
2022-11-16T18:41:54.540Z,11.10
2022-11-16T18:44:23.021Z,11.10
2022-11-16T18:46:50.954Z,11.12
2022-11-16T18:49:18.471Z,11.13
2022-11-16T18:51:46.182Z,11.13
2022-11-16T18:54:14.215Z,11.14
2022-11-16T18:56:41.917Z,11.16
2022-11-16T18:59:09.628Z,11.14
2022-11-16T19:01:37.727Z,11.14
2022-11-16T19:04:05.263Z,11.13
2022-11-16T19:06:33.040Z,11.11
2022-11-16T19:09:04.321Z,11.11
2022-11-16T19:11:31.893Z,11.11
2022-11-16T19:14:08.674Z,11.10
2022-11-16T19:16:36.986Z,11.12
2022-11-16T19:19:04.941Z,11.13
2022-11-16T19:21:32.517Z,11.12
2022-11-16T19:24:00.427Z,11.13
2022-11-16T19:26:28.433Z,11.12
2022-11-16T19:28:58.227Z,11.12
2022-11-16T19:31:30.064Z,11.13
2022-11-16T19:34:03.205Z,11.12
2022-11-16T19:36:32.725Z,11.12
2022-11-16T19:39:00.229Z,11.13
2022-11-16T19:41:32.414Z,11.13
2022-11-16T19:44:01.684Z,11.14
2022-11-16T19:46:31.463Z,11.11
2022-11-16T19:49:00.139Z,11.16
2022-11-16T19:51:31.347Z,11.16
2022-11-16T19:54:00.642Z,11.17
2022-11-16T19:56:29.367Z,11.13
2022-11-16T19:58:57.518Z,11.15
2022-11-16T20:01:29.220Z,11.15
2022-11-16T20:04:00.178Z,11.16
2022-11-16T20:06:30.796Z,11.17
2022-11-16T20:09:02.229Z,11.09
2022-11-16T20:11:34.038Z,11.07
2022-11-16T20:14:04.199Z,11.16
2022-11-16T20:16:38.649Z,11.17
2022-11-16T20:19:08.604Z,11.17
2022-11-16T20:21:39.368Z,11.17
2022-11-16T20:24:09.707Z,11.16
2022-11-16T20:26:41.966Z,11.17
2022-11-16T20:29:15.364Z,11.18
2022-11-16T20:31:45.205Z,11.17
2022-11-16T20:34:14.995Z,11.12
2022-11-16T20:36:45.817Z,11.11
2022-11-16T20:39:29.355Z,11.06
2022-11-16T20:41:56.697Z,11.07
2022-11-16T20:44:24.710Z,11.01
2022-11-16T20:46:52.891Z,11.00
2022-11-16T20:49:20.608Z,10.90
2022-11-16T20:51:49.500Z,10.86
2022-11-16T20:54:16.912Z,10.81
2022-11-16T20:56:44.775Z,10.78
2022-11-16T20:59:12.738Z,10.75
2022-11-16T21:01:41.507Z,10.68
2022-11-16T21:04:10.823Z,10.66
2022-11-16T21:06:38.571Z,10.64
2022-11-16T21:09:06.205Z,10.67
2022-11-16T21:11:53.766Z,10.64
2022-11-16T21:14:23.283Z,10.60
2022-11-16T21:16:50.933Z,10.57
2022-11-16T21:19:18.430Z,10.47
2022-11-16T21:21:46.149Z,10.44
2022-11-16T21:24:13.553Z,10.49
2022-11-16T21:26:41.163Z,10.26
2022-11-16T21:29:08.977Z,10.28
2022-11-16T21:31:37.046Z,10.30
2022-11-16T21:34:05.890Z,10.32
2022-11-16T21:36:34.268Z,10.34
2022-11-16T21:39:01.738Z,10.29
2022-11-16T21:41:29.200Z,10.27
2022-11-16T21:43:57.013Z,10.28
2022-11-16T21:46:26.417Z,10.32
2022-11-16T21:48:56.460Z,10.31
2022-11-16T21:51:26.764Z,10.34
2022-11-16T21:53:55.093Z,10.31
2022-11-16T21:56:24.358Z,10.29
2022-11-16T21:58:53.296Z,10.25
2022-11-16T22:01:22.476Z,10.14
2022-11-16T22:04:10.483Z,10.15
2022-11-16T22:06:56.584Z,10.20
2022-11-16T22:09:24.483Z,10.13
2022-11-16T22:11:51.919Z,10.27
2022-11-16T22:14:19.276Z,10.28
2022-11-16T22:16:46.920Z,10.26
2022-11-16T22:19:14.436Z,10.24
2022-11-16T22:21:41.763Z,10.26
2022-11-16T22:24:09.450Z,10.22
2022-11-16T22:26:38.152Z,10.22
2022-11-16T22:29:05.519Z,10.20
2022-11-16T22:31:33.193Z,10.22
2022-11-16T22:34:00.521Z,10.18
2022-11-16T22:36:28.004Z,10.17
2022-11-16T22:38:57.078Z,10.18
2022-11-16T22:41:24.444Z,10.18
2022-11-16T22:43:51.926Z,10.19
2022-11-16T22:46:19.608Z,10.16
2022-11-16T22:48:47.889Z,10.18
2022-11-16T22:51:22.460Z,10.16
2022-11-16T22:54:04.684Z,10.12
2022-11-16T22:56:33.445Z,10.08
2022-11-16T22:59:02.479Z,10.02
2022-11-16T23:01:29.941Z,10.05
2022-11-16T23:03:57.808Z,10.01
2022-11-16T23:06:25.578Z,9.90
2022-11-16T23:08:54.302Z,9.89
2022-11-16T23:11:42.543Z,9.84
2022-11-16T23:14:33.867Z,9.78
2022-11-16T23:17:02.391Z,9.78
2022-11-16T23:19:49.125Z,9.72
2022-11-16T23:22:37.588Z,9.62
2022-11-16T23:25:25.690Z,9.65
2022-11-16T23:28:16.051Z,9.65
2022-11-16T23:30:44.489Z,9.59
2022-11-16T23:33:12.263Z,9.56
2022-11-16T23:35:39.676Z,9.55
2022-11-16T23:38:08.338Z,9.54
2022-11-16T23:40:38.510Z,9.53
2022-11-16T23:43:26.015Z,9.50
2022-11-16T23:45:53.741Z,9.46
2022-11-16T23:48:21.184Z,9.37
2022-11-16T23:50:48.629Z,9.43
2022-11-16T23:53:16.287Z,9.37
2022-11-16T23:55:43.682Z,9.29
2022-11-16T23:58:14.367Z,9.32
